Time;durP1;ratioP1;P1;durP2;ratioP2;P2;SDS_P1;SDS_P2;PMS_P1;PMS_P2;Temp;Humidity;BMP_temperature;BMP_pressure;BME280_temperature;BME280_humidity;BME280_pressure;Samples;Min_cycle;Max_cycle;Signal;HPM_P1;HPM_P2
2021/11/24 00:00:27;;;;;;;20.90;11.63;;;-0.30;99.90;;;;;;5069894;28;20411;-52
2021/11/24 00:02:52;;;;;;;17.27;10.05;;;-0.30;99.90;;;;;;5051616;28;20418;-53
2021/11/24 00:05:19;;;;;;;26.30;12.47;;;-0.30;99.90;;;;;;5070216;28;20559;-52
2021/11/24 00:07:45;;;;;;;21.05;11.20;;;-0.30;99.90;;;;;;5086824;28;20402;-52
2021/11/24 00:10:14;;;;;;;22.70;12.23;;;-0.40;99.90;;;;;;5089672;28;20477;-53
2021/11/24 00:12:40;;;;;;;19.88;11.77;;;-0.50;99.90;;;;;;5089094;28;20408;-54
2021/11/24 00:15:07;;;;;;;20.15;11.00;;;-0.50;99.90;;;;;;5070486;28;20385;-52
2021/11/24 00:17:33;;;;;;;22.10;11.45;;;-0.60;99.90;;;;;;5089008;28;20899;-54
2021/11/24 00:19:59;;;;;;;20.52;11.20;;;-0.70;99.90;;;;;;5088860;28;20413;-52
2021/11/24 00:22:25;;;;;;;21.42;11.30;;;-0.70;99.90;;;;;;5089271;28;20374;-54
2021/11/24 00:24:51;;;;;;;17.40;10.53;;;0.30;99.90;;;;;;5070204;28;20397;-53
2021/11/24 00:27:17;;;;;;;18.10;11.18;;;-0.70;99.90;;;;;;5088945;28;21076;-53
2021/11/24 00:29:42;;;;;;;19.53;10.90;;;-0.60;99.90;;;;;;5088652;28;20457;-55
2021/11/24 00:32:08;;;;;;;20.20;11.85;;;-0.60;99.90;;;;;;5088374;28;20379;-53
2021/11/24 00:34:34;;;;;;;20.00;10.82;;;-0.60;99.90;;;;;;5089033;28;20397;-53
2021/11/24 00:37:00;;;;;;;20.02;10.90;;;-0.60;99.90;;;;;;5088161;28;20389;-53
2021/11/24 00:39:26;;;;;;;21.55;11.85;;;-0.50;99.90;;;;;;5088442;28;20374;-52
2021/11/24 00:41:52;;;;;;;19.15;11.40;;;-0.60;99.90;;;;;;5088432;28;20435;-53
2021/11/24 00:44:18;;;;;;;19.95;11.50;;;-0.60;99.90;;;;;;5088812;28;20843;-53
2021/11/24 00:46:44;;;;;;;22.05;11.55;;;-0.60;99.90;;;;;;5088644;28;20400;-54
2021/11/24 00:49:10;;;;;;;18.63;10.68;;;0.50;99.90;;;;;;5070122;28;20386;-53
2021/11/24 00:51:36;;;;;;;17.75;10.60;;;-0.60;99.90;;;;;;5088571;28;20778;-53
2021/11/24 00:54:02;;;;;;;17.45;10.27;;;-0.60;99.90;;;;;;5088154;28;20484;-53
2021/11/24 00:56:28;;;;;;;20.05;11.35;;;-0.60;99.90;;;;;;5074801;28;20471;-53
2021/11/24 00:58:54;;;;;;;26.67;12.60;;;-0.60;99.90;;;;;;5068248;28;20450;-53
2021/11/24 01:01:20;;;;;;;17.70;11.30;;;-0.50;99.90;;;;;;5069188;28;20855;-53
2021/11/24 01:03:45;;;;;;;19.67;10.90;;;-0.50;99.90;;;;;;5068476;28;20379;-54
2021/11/24 01:06:11;;;;;;;22.63;11.88;;;-0.50;99.90;;;;;;5068735;28;20478;-53
2021/11/24 01:08:37;;;;;;;16.98;10.80;;;-0.40;99.90;;;;;;5068709;28;20399;-53
2021/11/24 01:11:03;;;;;;;16.37;10.57;;;0.20;99.90;;;;;;5068594;28;20406;-53
2021/11/24 01:13:30;;;;;;;19.52;10.57;;;-0.50;99.90;;;;;;5048857;28;20498;-53
2021/11/24 01:15:56;;;;;;;17.40;10.10;;;-0.40;99.90;;;;;;5048401;28;20468;-53
2021/11/24 01:18:23;;;;;;;17.85;10.18;;;-0.40;99.90;;;;;;5031586;28;20508;-53
2021/11/24 01:20:49;;;;;;;20.92;11.00;;;-0.40;99.90;;;;;;5047981;28;20490;-53
2021/11/24 01:23:16;;;;;;;20.42;9.60;;;0.00;99.90;;;;;;5048356;28;20378;-53
2021/11/24 01:25:43;;;;;;;15.40;9.30;;;0.50;99.90;;;;;;5048855;28;20385;-53
2021/11/24 01:28:09;;;;;;;17.63;10.18;;;-0.40;99.90;;;;;;5048030;28;20497;-53
2021/11/24 01:30:35;;;;;;;17.00;9.50;;;-0.40;99.90;;;;;;5048748;28;20384;-53
2021/11/24 01:33:00;;;;;;;17.75;9.30;;;-0.50;99.90;;;;;;5047832;28;20476;-53
2021/11/24 01:35:26;;;;;;;19.85;10.13;;;-0.50;99.90;;;;;;5048745;28;20392;-53
2021/11/24 01:37:53;;;;;;;19.10;9.25;;;-0.50;99.90;;;;;;5047843;28;20382;-54
2021/11/24 01:40:18;;;;;;;17.73;9.45;;;-0.40;99.90;;;;;;5048718;28;20397;-53
2021/11/24 01:42:44;;;;;;;17.77;10.02;;;-0.40;99.90;;;;;;5030875;28;20520;-53
2021/11/24 01:45:14;;;;;;;17.08;9.35;;;-0.40;99.90;;;;;;5047885;28;20381;-54
2021/11/24 01:47:40;;;;;;;20.05;10.02;;;-0.40;99.90;;;;;;5048174;28;21049;-53
2021/11/24 01:50:06;;;;;;;15.90;9.20;;;-0.40;99.90;;;;;;5047890;28;20472;-54
2021/11/24 01:52:32;;;;;;;17.17;9.73;;;-0.40;99.90;;;;;;5048311;28;20382;-54
2021/11/24 01:54:59;;;;;;;17.83;9.40;;;0.30;99.90;;;;;;5047576;28;20750;-54
2021/11/24 01:57:27;;;;;;;16.05;9.70;;;-0.20;99.90;;;;;;5048497;28;20382;-53
2021/11/24 01:59:55;;;;;;;17.27;9.85;;;-0.30;99.90;;;;;;5045897;28;20408;-53
2021/11/24 02:02:22;;;;;;;15.97;9.13;;;0.20;99.90;;;;;;5030923;28;20377;-53
2021/11/24 02:04:48;;;;;;;15.77;9.05;;;-0.30;99.90;;;;;;5063305;28;20376;-55
2021/11/24 02:07:15;;;;;;;16.88;9.13;;;-0.30;99.90;;;;;;5067362;28;20462;-53
2021/11/24 02:09:42;;;;;;;16.08;7.80;;;-0.40;99.90;;;;;;5071225;28;20384;-53
2021/11/24 02:12:09;;;;;;;20.38;8.90;;;-0.40;99.90;;;;;;5079068;28;20393;-53
2021/11/24 02:14:34;;;;;;;17.75;8.60;;;-0.40;99.90;;;;;;5091355;28;20378;-53
2021/11/24 02:17:00;;;;;;;16.02;8.00;;;-0.40;99.90;;;;;;5072745;28;20386;-53
2021/11/24 02:19:31;;;;;;;16.77;9.03;;;-0.50;99.90;;;;;;5090948;28;20374;-53
2021/11/24 02:21:57;;;;;;;15.05;8.63;;;-0.50;99.90;;;;;;5090883;28;20386;-53
2021/11/24 02:24:25;;;;;;;14.82;8.35;;;-0.60;99.90;;;;;;5091784;28;20431;-53
2021/11/24 02:26:50;;;;;;;17.65;9.20;;;-0.70;99.90;;;;;;5090612;28;20406;-54
2021/11/24 02:29:16;;;;;;;16.27;7.97;;;-0.70;99.90;;;;;;5090911;28;20899;-52
2021/11/24 02:31:46;;;;;;;16.95;8.80;;;-0.60;99.90;;;;;;5091789;28;20740;-52
2021/11/24 02:34:12;;;;;;;14.13;8.05;;;-0.70;99.90;;;;;;5090529;28;20460;-53
2021/11/24 02:36:38;;;;;;;13.27;7.97;;;-0.80;99.90;;;;;;5090455;28;20930;-52
2021/11/24 02:39:03;;;;;;;14.32;7.82;;;-0.90;99.90;;;;;;5090219;28;20382;-52
2021/11/24 02:41:30;;;;;;;16.00;8.57;;;-0.90;99.90;;;;;;5090697;28;20390;-52
2021/11/24 02:43:57;;;;;;;13.65;8.20;;;-1.00;99.90;;;;;;5089129;28;20867;-53
2021/11/24 02:46:26;;;;;;;16.15;9.00;;;-1.00;99.90;;;;;;5071725;28;20383;-53
2021/11/24 02:48:52;;;;;;;17.30;9.37;;;-1.10;99.90;;;;;;5052940;28;20403;-55
2021/11/24 02:51:18;;;;;;;16.00;9.63;;;-1.10;99.90;;;;;;5053565;28;20892;-53
2021/11/24 02:53:44;;;;;;;17.80;10.33;;;-1.10;99.90;;;;;;5078008;28;20516;-53
2021/11/24 02:56:10;;;;;;;17.07;9.50;;;-1.20;99.90;;;;;;5089785;28;20540;-53
2021/11/24 02:58:35;;;;;;;15.70;9.40;;;-1.10;99.90;;;;;;5090570;28;20791;-53
2021/11/24 03:01:03;;;;;;;19.20;10.10;;;-1.10;99.90;;;;;;5089982;28;20760;-53
2021/11/24 03:03:29;;;;;;;17.95;10.43;;;-0.20;99.90;;;;;;5071071;28;20387;-53
2021/11/24 03:05:55;;;;;;;24.63;11.32;;;-0.90;99.90;;;;;;5070636;28;20475;-53
2021/11/24 03:08:21;;;;;;;17.00;10.10;;;-1.10;99.90;;;;;;5071137;28;20434;-53
2021/11/24 03:10:46;;;;;;;16.83;10.30;;;-1.00;99.90;;;;;;5071029;28;20482;-52
2021/11/24 03:13:12;;;;;;;21.33;11.57;;;-0.90;99.90;;;;;;5070759;28;20393;-53
2021/11/24 03:15:38;;;;;;;42.27;19.23;;;-0.90;99.90;;;;;;5090744;28;20456;-53
2021/11/24 03:18:03;;;;;;;31.63;15.90;;;-0.90;99.90;;;;;;5089339;28;20731;-53
2021/11/24 03:20:29;;;;;;;22.58;11.95;;;-0.90;99.90;;;;;;5090126;28;20367;-52
2021/11/24 03:22:57;;;;;;;20.20;10.63;;;-1.00;99.90;;;;;;5089470;28;20890;-56
2021/11/24 03:25:23;;;;;;;22.35;11.75;;;-1.10;99.90;;;;;;5072100;28;20855;-54
2021/11/24 03:27:49;;;;;;;23.20;11.52;;;-1.20;99.90;;;;;;5090491;28;20463;-54
2021/11/24 03:30:21;;;;;;;27.25;13.18;;;-1.20;99.90;;;;;;5089700;28;20378;-54
2021/11/24 03:32:48;;;;;;;22.77;11.65;;;-1.20;99.90;;;;;;5072025;28;20405;-54
2021/11/24 03:35:15;;;;;;;19.73;10.77;;;-1.30;99.90;;;;;;5089200;28;20385;-54
2021/11/24 03:37:41;;;;;;;20.17;11.20;;;-1.40;99.90;;;;;;5089721;28;20463;-54
2021/11/24 03:40:08;;;;;;;21.87;11.60;;;-1.40;99.90;;;;;;5089534;28;20389;-54
2021/11/24 03:42:35;;;;;;;19.65;10.88;;;-1.40;99.90;;;;;;5089688;28;20381;-54
2021/11/24 03:45:01;;;;;;;20.63;11.60;;;-1.50;99.90;;;;;;5089163;28;20445;-54
2021/11/24 03:47:27;;;;;;;24.08;13.20;;;-1.50;99.90;;;;;;5071973;28;20402;-54
2021/11/24 03:49:52;;;;;;;24.85;13.18;;;-1.60;99.90;;;;;;5089431;28;20776;-56
2021/11/24 03:52:18;;;;;;;24.87;13.33;;;-1.50;99.90;;;;;;5089167;28;21012;-55
2021/11/24 03:54:44;;;;;;;24.90;13.80;;;-1.50;99.90;;;;;;5089574;28;20465;-54
2021/11/24 03:57:10;;;;;;;22.43;13.50;;;-1.50;99.90;;;;;;5089037;28;20485;-54
2021/11/24 03:59:36;;;;;;;24.47;13.63;;;-0.90;99.90;;;;;;5089671;28;20512;-55
2021/11/24 04:02:01;;;;;;;23.02;12.05;;;-1.60;99.90;;;;;;5070153;28;20396;-54
2021/11/24 04:04:27;;;;;;;22.40;12.90;;;-1.60;99.90;;;;;;5089462;28;20377;-54
2021/11/24 04:06:53;;;;;;;22.00;11.80;;;-1.40;99.90;;;;;;5089655;28;20844;-53
2021/11/24 04:09:18;;;;;;;20.83;11.70;;;-0.90;99.90;;;;;;5088636;28;20429;-54
2021/11/24 04:11:44;;;;;;;20.37;12.27;;;-1.20;99.90;;;;;;5069864;28;20713;-52
2021/11/24 04:14:10;;;;;;;21.55;11.82;;;-1.20;99.90;;;;;;5049735;28;20859;-52
2021/11/24 04:16:36;;;;;;;20.45;10.98;;;-1.30;99.90;;;;;;5049860;28;20411;-52
2021/11/24 04:19:02;;;;;;;18.77;10.80;;;-1.40;99.90;;;;;;5048822;28;20377;-53
2021/11/24 04:21:29;;;;;;;19.60;11.02;;;-1.30;99.90;;;;;;5049837;28;20677;-53
2021/11/24 04:23:55;;;;;;;21.08;12.10;;;-1.30;99.90;;;;;;5049443;28;20541;-55
2021/11/24 04:26:21;;;;;;;20.92;10.88;;;-1.20;99.90;;;;;;5049439;28;20962;-52
2021/11/24 04:28:47;;;;;;;22.40;12.63;;;-1.20;99.90;;;;;;5049422;28;20405;-52
2021/11/24 04:31:12;;;;;;;22.20;13.13;;;-1.10;99.90;;;;;;5059903;28;20885;-52
2021/11/24 04:33:38;;;;;;;23.65;15.23;;;0.30;99.90;;;;;;5049473;28;20475;-53
2021/11/24 04:36:05;;;;;;;24.27;15.10;;;-0.80;99.90;;;;;;5030904;28;20392;-53
2021/11/24 04:38:31;;;;;;;22.02;12.45;;;-0.70;99.90;;;;;;5043944;28;20400;-52
2021/11/24 04:40:57;;;;;;;23.33;13.18;;;-0.70;99.90;;;;;;5066909;28;20392;-54
2021/11/24 04:43:29;;;;;;;24.13;13.57;;;-0.70;99.90;;;;;;5049945;28;20392;-53
2021/11/24 04:45:56;;;;;;;25.93;14.80;;;-0.60;99.90;;;;;;5049585;28;20968;-54
2021/11/24 04:48:23;;;;;;;25.30;13.48;;;-1.30;99.90;;;;;;5030828;28;20424;-53
2021/11/24 04:50:48;;;;;;;22.35;12.25;;;-0.80;99.90;;;;;;5048860;28;20393;-54
2021/11/24 04:53:14;;;;;;;20.52;12.20;;;-0.90;99.90;;;;;;5067377;28;20445;-53
2021/11/24 04:55:40;;;;;;;19.93;12.27;;;-0.90;99.90;;;;;;5068535;28;20411;-52
2021/11/24 04:58:06;;;;;;;22.97;12.60;;;-1.00;99.90;;;;;;5067823;28;20711;-52
2021/11/24 05:00:32;;;;;;;25.57;13.27;;;-0.90;99.90;;;;;;5068113;28;20437;-53
2021/11/24 05:02:57;;;;;;;23.63;13.40;;;-0.80;99.90;;;;;;5067800;28;20540;-55
2021/11/24 05:05:28;;;;;;;25.33;13.70;;;-0.70;99.90;;;;;;5068259;28;20445;-52
2021/11/24 05:07:54;;;;;;;31.08;14.77;;;-0.60;99.90;;;;;;5068229;28;20411;-52
2021/11/24 05:10:20;;;;;;;30.17;14.60;;;-0.50;99.90;;;;;;5067053;28;20402;-52
2021/11/24 05:12:45;;;;;;;29.77;15.20;;;-0.50;99.90;;;;;;5081508;28;20398;-53
2021/11/24 05:15:18;;;;;;;30.75;17.38;;;-0.50;99.90;;;;;;5087829;28;20394;-52
2021/11/24 05:17:46;;;;;;;31.42;16.20;;;-0.40;99.90;;;;;;5070812;28;20382;-53
2021/11/24 05:20:11;;;;;;;33.00;17.05;;;-0.30;99.90;;;;;;5086404;28;20973;-52
2021/11/24 05:22:38;;;;;;;30.17;14.80;;;0.80;99.90;;;;;;5087807;28;20386;-52
2021/11/24 05:25:04;;;;;;;32.25;16.52;;;-0.10;99.90;;;;;;5087293;28;20370;-52
2021/11/24 05:27:29;;;;;;;33.40;16.02;;;-0.10;99.90;;;;;;5087711;28;20414;-52
2021/11/24 05:29:55;;;;;;;32.20;16.02;;;0.00;99.90;;;;;;5088021;28;20760;-53
2021/11/24 05:32:21;;;;;;;39.75;16.90;;;0.00;99.90;;;;;;5087215;28;20370;-52
2021/11/24 05:34:46;;;;;;;33.40;16.40;;;0.00;99.90;;;;;;5087706;28;20390;-53
2021/11/24 05:37:12;;;;;;;36.37;15.57;;;0.00;99.90;;;;;;5087620;28;20397;-52
2021/11/24 05:39:38;;;;;;;36.17;15.00;;;-0.10;99.90;;;;;;5087843;28;20461;-52
2021/11/24 05:42:05;;;;;;;33.10;15.70;;;-0.20;99.90;;;;;;5087991;28;20394;-52
2021/11/24 05:44:34;;;;;;;35.90;15.65;;;-0.10;99.90;;;;;;5092064;28;20868;-54
2021/11/24 05:47:06;;;;;;;31.20;15.80;;;-0.20;99.90;;;;;;5091472;28;20398;-55
2021/11/24 05:49:34;;;;;;;33.05;15.55;;;0.00;99.90;;;;;;5090590;28;20469;-53
2021/11/24 05:52:00;;;;;;;31.23;15.30;;;0.00;99.90;;;;;;5080496;28;20409;-54
2021/11/24 05:54:26;;;;;;;37.60;17.50;;;-1.00;99.90;;;;;;5079874;28;20852;-53
2021/11/24 05:56:52;;;;;;;33.22;15.10;;;0.00;99.90;;;;;;5066840;28;20405;-54
2021/11/24 05:59:18;;;;;;;29.90;14.80;;;-0.10;99.90;;;;;;5079225;28;20392;-53
2021/11/24 06:01:44;;;;;;;33.42;14.68;;;-0.10;99.90;;;;;;5080767;28;20465;-52
2021/11/24 06:04:10;;;;;;;34.58;15.60;;;-0.20;99.90;;;;;;5080938;28;20852;-53
2021/11/24 06:06:36;;;;;;;30.63;15.60;;;-0.30;99.90;;;;;;5082702;28;20719;-55
2021/11/24 06:09:04;;;;;;;30.00;14.90;;;-0.30;99.90;;;;;;5081272;28;20418;-55
2021/11/24 06:11:30;;;;;;;30.33;15.32;;;-0.30;99.90;;;;;;5080554;28;20411;-52
2021/11/24 06:13:56;;;;;;;34.72;16.10;;;-0.40;99.90;;;;;;5080734;28;20423;-53
2021/11/24 06:16:21;;;;;;;37.58;16.45;;;-0.40;99.90;;;;;;5079986;28;20380;-52
2021/11/24 06:18:48;;;;;;;33.03;14.30;;;-0.50;99.90;;;;;;5079803;28;20713;-53
2021/11/24 06:21:17;;;;;;;32.20;16.30;;;0.20;99.90;;;;;;5076930;28;20384;-52
2021/11/24 06:23:45;;;;;;;27.83;14.70;;;-0.80;99.90;;;;;;5063762;28;20450;-53
2021/11/24 06:26:11;;;;;;;28.50;14.85;;;-0.80;99.90;;;;;;5079274;28;20382;-53
2021/11/24 06:28:37;;;;;;;32.40;15.53;;;-1.00;99.90;;;;;;5081639;28;20414;-52
2021/11/24 06:31:03;;;;;;;27.93;15.07;;;-1.00;99.90;;;;;;5076997;28;20394;-55
2021/11/24 06:33:29;;;;;;;24.38;13.75;;;-0.80;99.90;;;;;;5086856;28;20386;-55
2021/11/24 06:35:55;;;;;;;28.50;15.23;;;-1.10;99.90;;;;;;5079510;28;20395;-55
2021/11/24 06:38:22;;;;;;;29.08;14.70;;;-1.10;99.90;;;;;;5084007;28;21253;-53
2021/11/24 06:40:48;;;;;;;30.43;15.10;;;-1.00;99.90;;;;;;5091151;28;20386;-53
2021/11/24 06:43:13;;;;;;;29.98;16.73;;;-1.00;99.90;;;;;;5090139;28;20410;-53
2021/11/24 06:45:41;;;;;;;30.93;18.40;;;-0.90;99.90;;;;;;5070949;28;20880;-52
2021/11/24 06:48:07;;;;;;;31.13;17.02;;;-0.80;99.90;;;;;;5083182;28;20401;-54
2021/11/24 06:50:33;;;;;;;29.02;15.32;;;-0.80;99.90;;;;;;5091046;28;20887;-52
2021/11/24 06:52:59;;;;;;;29.57;14.73;;;-0.90;99.90;;;;;;5072936;28;20374;-53
2021/11/24 06:55:24;;;;;;;26.60;14.60;;;-0.90;99.90;;;;;;5086237;28;20668;-52
2021/11/24 06:57:50;;;;;;;29.75;14.38;;;-0.80;99.90;;;;;;5083049;28;20390;-53
2021/11/24 07:00:16;;;;;;;26.40;14.13;;;-0.10;99.90;;;;;;5072906;28;20391;-53
2021/11/24 07:02:42;;;;;;;27.85;14.27;;;-0.80;99.90;;;;;;5080216;28;20766;-54
2021/11/24 07:05:09;;;;;;;32.47;13.93;;;-0.90;99.90;;;;;;5077820;28;20397;-53
2021/11/24 07:07:34;;;;;;;27.35;13.75;;;-0.90;99.90;;;;;;5073376;28;20542;-53
2021/11/24 07:10:00;;;;;;;26.40;14.32;;;-0.90;99.90;;;;;;5057104;28;20496;-52
2021/11/24 07:12:26;;;;;;;25.93;14.07;;;-0.90;99.90;;;;;;5069544;28;20469;-52
2021/11/24 07:14:53;;;;;;;26.87;14.70;;;-0.50;99.90;;;;;;5068035;28;20398;-54
2021/11/24 07:17:19;;;;;;;27.05;14.45;;;-0.80;99.90;;;;;;5076393;28;20387;-52
2021/11/24 07:19:45;;;;;;;29.63;13.85;;;-0.70;99.90;;;;;;5074175;28;20390;-54
2021/11/24 07:22:11;;;;;;;25.88;14.77;;;-0.70;99.90;;;;;;5079183;28;20830;-53
2021/11/24 07:24:36;;;;;;;27.60;14.60;;;-0.60;99.90;;;;;;5075078;28;20937;-53
2021/11/24 07:27:02;;;;;;;29.20;15.00;;;-0.50;99.90;;;;;;5077412;28;20380;-52
2021/11/24 07:29:28;;;;;;;28.80;15.75;;;-0.40;99.90;;;;;;5079214;28;20403;-52
2021/11/24 07:31:54;;;;;;;30.20;15.55;;;-0.30;99.90;;;;;;5079282;28;20851;-52
2021/11/24 07:34:19;;;;;;;32.47;16.40;;;-0.30;99.90;;;;;;5079243;28;20379;-52
2021/11/24 07:36:45;;;;;;;31.20;15.73;;;-0.20;99.90;;;;;;5079968;28;20386;-52
2021/11/24 07:39:11;;;;;;;27.80;14.70;;;-0.10;99.90;;;;;;5075699;28;20384;-52
2021/11/24 07:41:37;;;;;;;28.00;14.77;;;0.00;99.90;;;;;;5079581;28;20492;-52
2021/11/24 07:44:03;;;;;;;30.40;14.55;;;0.10;99.90;;;;;;5079673;28;20397;-52
2021/11/24 07:46:29;;;;;;;36.08;15.13;;;0.20;99.90;;;;;;5063369;28;20455;-52
2021/11/24 07:48:57;;;;;;;33.30;15.68;;;1.20;99.90;;;;;;5078723;28;20414;-53
2021/11/24 07:51:24;;;;;;;31.10;14.80;;;0.70;99.90;;;;;;5078379;28;20463;-52
2021/11/24 07:53:51;;;;;;;30.33;14.85;;;0.60;99.90;;;;;;5079261;28;20372;-52
2021/11/24 07:56:16;;;;;;;27.95;14.70;;;0.80;99.90;;;;;;5079126;28;20434;-54
2021/11/24 07:58:42;;;;;;;28.08;14.20;;;1.00;99.90;;;;;;5069043;28;20403;-52
2021/11/24 08:01:09;;;;;;;27.88;14.25;;;2.00;99.90;;;;;;5069412;28;20901;-55
2021/11/24 08:03:36;;;;;;;28.58;14.02;;;1.20;99.90;;;;;;5083011;28;20398;-52
2021/11/24 08:06:03;;;;;;;25.58;13.25;;;1.20;99.90;;;;;;5063668;28;20399;-53
2021/11/24 08:08:28;;;;;;;25.27;13.43;;;1.40;99.90;;;;;;5088389;28;20489;-53
2021/11/24 08:10:54;;;;;;;26.20;14.03;;;1.70;99.90;;;;;;5089157;28;20482;-52
2021/11/24 08:13:21;;;;;;;27.20;14.25;;;1.90;99.90;;;;;;5076454;28;20407;-52
2021/11/24 08:15:47;;;;;;;28.08;13.27;;;2.10;99.90;;;;;;5078813;28;20406;-53
2021/11/24 08:18:13;;;;;;;29.50;15.30;;;2.30;99.90;;;;;;5078819;28;20378;-54
2021/11/24 08:20:39;;;;;;;29.60;15.55;;;3.00;99.90;;;;;;5079557;28;20401;-55
2021/11/24 08:23:05;;;;;;;26.17;13.15;;;2.40;99.90;;;;;;5078291;28;20849;-55
2021/11/24 08:25:30;;;;;;;28.90;14.57;;;2.50;99.90;;;;;;5076696;28;20372;-53
2021/11/24 08:27:56;;;;;;;27.77;14.33;;;2.60;99.90;;;;;;5081045;28;20436;-52
2021/11/24 08:30:22;;;;;;;25.03;13.30;;;2.50;99.90;;;;;;5088022;28;20879;-51
2021/11/24 08:32:52;;;;;;;27.08;13.50;;;2.80;99.90;;;;;;5070900;28;20390;-55
2021/11/24 08:35:19;;;;;;;28.15;12.95;;;2.50;99.90;;;;;;5087384;28;20465;-55
2021/11/24 08:37:46;;;;;;;28.38;13.90;;;3.00;99.90;;;;;;5088414;28;20374;-55
2021/11/24 08:40:12;;;;;;;25.25;13.07;;;2.50;99.90;;;;;;5088212;28;20390;-55
2021/11/24 08:42:38;;;;;;;30.65;14.02;;;2.50;99.90;;;;;;5088847;28;20864;-53
2021/11/24 08:45:06;;;;;;;27.23;12.65;;;2.50;99.90;;;;;;5088917;28;20378;-53
2021/11/24 08:47:32;;;;;;;28.95;13.77;;;2.50;99.90;;;;;;5087882;28;20894;-53
2021/11/24 08:49:58;;;;;;;26.98;13.32;;;2.50;99.90;;;;;;5088881;28;20410;-53
2021/11/24 08:52:24;;;;;;;29.57;13.50;;;2.60;99.90;;;;;;5087636;28;20558;-53
2021/11/24 08:54:50;;;;;;;27.45;15.15;;;3.40;99.90;;;;;;5088770;28;20396;-53
2021/11/24 08:57:16;;;;;;;29.83;16.65;;;2.50;99.90;;;;;;5087542;28;20773;-53
2021/11/24 08:59:41;;;;;;;37.13;18.95;;;2.50;99.90;;;;;;5088229;28;20383;-53
2021/11/24 09:02:08;;;;;;;37.13;20.13;;;2.70;99.90;;;;;;5088497;28;20406;-53
2021/11/24 09:04:34;;;;;;;36.67;16.90;;;2.70;99.90;;;;;;5087567;28;20374;-53
2021/11/24 09:07:00;;;;;;;33.47;15.93;;;2.70;99.90;;;;;;5087961;28;20393;-53
2021/11/24 09:09:26;;;;;;;28.20;13.77;;;2.70;99.90;;;;;;5087945;28;20394;-53
2021/11/24 09:11:51;;;;;;;35.05;17.98;;;2.70;99.90;;;;;;5087900;28;20424;-53
2021/11/24 09:14:19;;;;;;;27.53;14.20;;;3.00;99.90;;;;;;5058283;28;20483;-53
2021/11/24 09:16:45;;;;;;;35.53;18.20;;;2.60;99.90;;;;;;5068977;28;20854;-53
2021/11/24 09:19:11;;;;;;;29.10;16.30;;;2.90;99.90;;;;;;5075889;28;20783;-55
2021/11/24 09:21:36;;;;;;;25.50;14.70;;;3.10;99.90;;;;;;5087699;28;20374;-53
2021/11/24 09:24:11;;;;;;;29.52;15.20;;;3.30;99.90;;;;;;5070255;28;20443;-54
2021/11/24 09:29:03;;;;;;;25.52;15.40;;;3.90;99.90;;;;;;5088315;28;20408;-53
2021/11/24 09:31:28;;;;;;;28.58;15.63;;;3.70;99.90;;;;;;5087484;28;20390;-54
2021/11/24 09:33:54;;;;;;;24.77;13.17;;;4.00;99.90;;;;;;5087814;28;20381;-54
2021/11/24 09:36:20;;;;;;;24.70;13.05;;;4.10;99.90;;;;;;5087432;28;20389;-54
2021/11/24 09:38:45;;;;;;;28.70;15.07;;;4.10;99.90;;;;;;5088036;28;20858;-54
2021/11/24 09:41:12;;;;;;;29.00;13.83;;;4.40;99.90;;;;;;5088530;28;20394;-55
2021/11/24 09:43:43;;;;;;;26.93;13.73;;;4.60;99.90;;;;;;5087622;28;21036;-54
2021/11/24 09:46:11;;;;;;;25.52;12.52;;;4.70;99.90;;;;;;5088368;28;20402;-55
2021/11/24 09:48:38;;;;;;;28.10;13.88;;;4.80;99.90;;;;;;5087348;28;20412;-54
2021/11/24 09:51:04;;;;;;;23.70;13.43;;;5.00;99.90;;;;;;5069709;28;20875;-54
2021/11/24 09:53:32;;;;;;;25.85;13.80;;;5.60;99.90;;;;;;5068933;28;20375;-55
2021/11/24 09:55:58;;;;;;;22.00;12.00;;;5.50;99.90;;;;;;5087901;28;20381;-55
2021/11/24 09:58:24;;;;;;;29.77;14.35;;;;;;;;;;5087182;28;20768;-55
2021/11/24 10:00:50;;;;;;;27.05;13.50;;;;;;;;;;5074766;28;20376;-54
2021/11/24 10:03:17;;;;;;;25.30;14.60;;;;;;;;;;5049923;28;20436;-56
2021/11/24 10:05:45;;;;;;;26.50;13.60;;;;;;;;;;5068420;28;20392;-54
2021/11/24 10:08:11;;;;;;;22.40;13.02;;;;;;;;;;5087671;28;20398;-54
2021/11/24 10:10:37;;;;;;;23.30;13.63;;;;;;;;;;5087257;28;20724;-54
2021/11/24 10:13:03;;;;;;;21.88;12.90;;;4.80;99.90;;;;;;5086782;28;20406;-54
2021/11/24 10:15:33;;;;;;;23.27;12.57;;;4.90;99.90;;;;;;5067320;28;20395;-54
2021/11/24 10:18:30;;;;;;;23.83;12.07;;;4.70;99.90;;;;;;5068543;28;20392;-54
2021/11/24 10:21:04;;;;;;;27.77;13.40;;;4.70;99.90;;;;;;5076840;28;20485;-54
2021/11/24 10:23:41;;;;;;;22.85;11.77;;;4.90;99.90;;;;;;5068932;28;20398;-54
2021/11/24 10:26:31;;;;;;;23.17;11.80;;;5.30;99.90;;;;;;5075864;28;20392;-54
2021/11/24 10:29:13;;;;;;;21.98;12.00;;;5.30;99.90;;;;;;5075602;28;20396;-54
2021/11/24 10:31:56;;;;;;;23.77;12.50;;;5.10;99.90;;;;;;5071658;28;20383;-54
2021/11/24 10:34:28;;;;;;;20.70;11.93;;;5.00;99.90;;;;;;5070807;28;20707;-54
2021/11/24 10:37:01;;;;;;;24.75;12.13;;;5.00;99.90;;;;;;5091556;28;20376;-54
2021/11/24 10:39:29;;;;;;;20.92;11.68;;;4.80;99.90;;;;;;5090222;28;20370;-60
2021/11/24 10:42:13;;;;;;;22.45;12.18;;;4.90;99.90;;;;;;5091067;28;20393;-54
2021/11/24 10:44:41;;;;;;;25.55;13.10;;;4.90;99.90;;;;;;5090721;28;20379;-54
2021/11/24 10:47:07;;;;;;;23.60;13.57;;;4.70;99.90;;;;;;5091317;28;20378;-54
2021/11/24 10:49:51;;;;;;;23.58;14.25;;;4.70;99.90;;;;;;5089948;28;20964;-54
2021/11/24 10:52:33;;;;;;;24.07;13.43;;;4.90;99.90;;;;;;5090801;28;20457;-56
2021/11/24 10:54:59;;;;;;;26.58;14.65;;;4.70;99.90;;;;;;5090892;28;20374;-55
2021/11/24 10:57:25;;;;;;;22.87;12.93;;;4.80;99.90;;;;;;5090421;28;20896;-54
2021/11/24 10:59:51;;;;;;;23.35;13.05;;;4.90;99.90;;;;;;5090345;28;20386;-54
2021/11/24 11:02:24;;;;;;;21.88;11.70;;;4.80;99.90;;;;;;5090440;28;20892;-55
2021/11/24 11:05:05;;;;;;;22.85;12.55;;;4.60;99.90;;;;;;5090676;28;20867;-54
2021/11/24 11:07:33;;;;;;;22.40;12.50;;;4.50;99.90;;;;;;5089876;28;20496;-54
2021/11/24 11:10:12;;;;;;;21.67;11.68;;;4.40;99.90;;;;;;5072445;28;20956;-53
2021/11/24 11:12:40;;;;;;;23.52;12.30;;;4.40;99.90;;;;;;5089695;28;20590;-54
2021/11/24 11:15:15;;;;;;;21.10;11.27;;;4.50;99.90;;;;;;5073029;28;20873;-54
2021/11/24 11:17:57;;;;;;;20.20;11.40;;;5.00;99.90;;;;;;5070474;28;20395;-54
2021/11/24 11:20:26;;;;;;;23.20;11.55;;;5.40;99.90;;;;;;5070214;28;20438;-55
2021/11/24 11:23:07;;;;;;;22.77;11.45;;;5.60;99.90;;;;;;5070791;28;20403;-54
2021/11/24 11:25:33;;;;;;;19.30;10.73;;;5.80;99.90;;;;;;5072011;28;20445;-54
2021/11/24 11:28:00;;;;;;;20.60;11.88;;;5.60;99.90;;;;;;5090062;28;20432;-54
2021/11/24 11:30:28;;;;;;;22.10;11.05;;;5.50;99.90;;;;;;5089550;28;20374;-54
2021/11/24 11:32:55;;;;;;;20.70;10.98;;;5.40;99.90;;;;;;5089988;28;20732;-57
2021/11/24 11:35:23;;;;;;;20.05;12.00;;;5.60;99.90;;;;;;5089243;28;20370;-55
2021/11/24 11:37:49;;;;;;;23.15;11.52;;;5.70;99.90;;;;;;5090181;28;20389;-54
2021/11/24 11:40:16;;;;;;;20.33;11.70;;;5.90;99.90;;;;;;5089501;28;20810;-54
2021/11/24 11:42:44;;;;;;;20.10;10.95;;;6.00;99.90;;;;;;5089045;28;20406;-54
2021/11/24 11:45:13;;;;;;;18.58;10.50;;;6.20;99.90;;;;;;5090020;28;20410;-54
2021/11/24 11:47:46;;;;;;;21.85;11.30;;;6.30;99.90;;;;;;5071046;28;20442;-54
2021/11/24 11:50:32;;;;;;;82.82;31.95;;;6.40;99.90;;;;;;5089540;28;20935;-54
2021/11/24 11:53:11;;;;;;;25.50;12.98;;;6.60;99.90;;;;;;5088839;28;20389;-52
2021/11/24 11:55:37;;;;;;;19.50;10.80;;;6.50;99.90;;;;;;5079278;28;20456;-54
2021/11/24 11:58:24;;;;;;;20.17;10.77;;;6.60;99.90;;;;;;5073368;28;20384;-52
2021/11/24 12:01:49;;;;;;;18.75;10.13;;;6.90;99.90;;;;;;5069877;28;20388;-52
2021/11/24 12:04:22;;;;;;;21.65;11.10;;;6.80;99.90;;;;;;4962787;28;20411;-52
2021/11/24 12:06:53;;;;;;;18.38;10.15;;;6.70;99.90;;;;;;4968598;28;20388;-52
2021/11/24 12:09:22;;;;;;;19.95;10.57;;;6.50;99.90;;;;;;5021737;28;20753;-55
2021/11/24 12:12:08;;;;;;;19.23;10.43;;;6.30;99.90;;;;;;5065491;28;20408;-54
2021/11/24 12:14:58;;;;;;;26.52;13.95;;;6.30;99.90;;;;;;5064859;28;20421;-52
2021/11/24 12:20:15;;;;;;;19.33;10.68;;;6.80;99.90;;;;;;5070278;28;20384;-52
2021/11/24 12:22:48;;;;;;;19.33;10.73;;;6.90;99.90;;;;;;5070397;28;20790;-52
2021/11/24 12:25:30;;;;;;;22.48;12.40;;;8.30;99.90;;;;;;5033859;28;20497;-53
2021/11/24 12:28:01;;;;;;;19.42;11.02;;;6.90;99.90;;;;;;5070328;28;20963;-53
2021/11/24 12:33:32;;;;;;;23.15;13.23;;;7.30;99.90;;;;;;5051146;28;20866;-52
2021/11/24 12:36:16;;;;;;;20.15;10.65;;;7.40;99.90;;;;;;5063928;28;20473;-52
2021/11/24 12:38:48;;;;;;;19.40;10.63;;;7.30;99.90;;;;;;5070345;28;20705;-53
2021/11/24 12:41:21;;;;;;;273.05;81.13;;;7.30;99.90;;;;;;5069541;28;20423;-53
2021/11/24 12:43:51;;;;;;;21.30;11.30;;;7.40;99.90;;;;;;5069751;28;20737;-53